IBE2KC LEGR-LEMD
Flight info
| Callsign | IBE2KC |
|---|---|
| Flight time | N/A |
| Altitude | 32000 |
| Route | VIBAS N865 MORAL |
| Aircraft | A20N/M-SDE2E3FGHIRWXY/LB1 |
Departure
| Time | 2026-04-13 13:49 |
|---|---|
| Airport | F.G.L. Airport Granada-Jaén Airport (LEGR) |
Arrival
| Time | N/A |
|---|---|
| Airport | Adolfo Suárez Madrid–Barajas Airport (LEMD) |
| Time | Latitude | Longitude | Altitude | Speed | Heading |
|---|---|---|---|---|---|
| 2026-04-13 13:43 | 37.18650 | -3.77628 | 1872 ft | 0 kts | 270° |
| 2026-04-13 13:46 | 37.18650 | -3.77630 | 1872 ft | 2 kts | 270° |
| 2026-04-13 13:46 | 37.18689 | -3.77691 | 1872 ft | 8 kts | 1° |
| 2026-04-13 13:47 | 37.18719 | -3.77591 | 1869 ft | 30 kts | 85° |
| 2026-04-13 13:47 | 37.18711 | -3.77319 | 1872 ft | 31 kts | 89° |
| 2026-04-13 13:47 | 37.18712 | -3.77053 | 1872 ft | 30 kts | 90° |
| 2026-04-13 13:47 | 37.18714 | -3.76772 | 1872 ft | 44 kts | 89° |
| 2026-04-13 13:48 | 37.18717 | -3.76363 | 1872 ft | 41 kts | 90° |
| 2026-04-13 13:48 | 37.18723 | -3.76108 | 1871 ft | 26 kts | 67° |
| 2026-04-13 13:48 | 37.18866 | -3.76134 | 1869 ft | 24 kts | 318° |
| 2026-04-13 13:48 | 37.18884 | -3.76301 | 1871 ft | 18 kts | 270° |
| 2026-04-13 13:49 | 37.18882 | -3.76570 | 1874 ft | 53 kts | 269° |
| 2026-04-13 13:49 | 37.18877 | -3.77284 | 1872 ft | 112 kts | 269° |
| 2026-04-13 13:49 | 37.18861 | -3.78492 | 1933 ft | 156 kts | 274° |
| 2026-04-13 13:49 | 37.18832 | -3.79826 | 2539 ft | 151 kts | 280° |
| 2026-04-13 13:50 | 37.18897 | -3.81156 | 3225 ft | 155 kts | 275° |
| 2026-04-13 13:50 | 37.18817 | -3.82543 | 3963 ft | 162 kts | 274° |
| 2026-04-13 13:50 | 37.18768 | -3.84020 | 4487 ft | 180 kts | 276° |
| 2026-04-13 13:50 | 37.18730 | -3.85664 | 4971 ft | 195 kts | 275° |
| 2026-04-13 13:51 | 37.18683 | -3.87429 | 5404 ft | 216 kts | 274° |
| 2026-04-13 13:51 | 37.18632 | -3.89439 | 5695 ft | 244 kts | 274° |
| 2026-04-13 13:51 | 37.18569 | -3.91646 | 6053 ft | 269 kts | 273° |
| 2026-04-13 13:51 | 37.18493 | -3.94101 | 6592 ft | 286 kts | 272° |
| 2026-04-13 13:52 | 37.18411 | -3.96629 | 7357 ft | 293 kts | 272° |
| 2026-04-13 13:52 | 37.18364 | -3.99171 | 8184 ft | 296 kts | 278° |
| 2026-04-13 13:52 | 37.18890 | -4.01613 | 9027 ft | 290 kts | 304° |
| 2026-04-13 13:52 | 37.20300 | -4.03358 | 9864 ft | 287 kts | 334° |
| 2026-04-13 13:53 | 37.22224 | -4.03902 | 10700 ft | 288 kts | 3° |
| 2026-04-13 13:53 | 37.24119 | -4.03099 | 11537 ft | 295 kts | 31° |
| 2026-04-13 13:53 | 37.25498 | -4.01132 | 12329 ft | 313 kts | 58° |
| 2026-04-13 13:53 | 37.26000 | -3.98417 | 13097 ft | 333 kts | 85° |
| 2026-04-13 13:54 | 37.25457 | -3.95514 | 13853 ft | 355 kts | 110° |
| 2026-04-13 13:54 | 37.24241 | -3.92765 | 14488 ft | 361 kts | 110° |
| 2026-04-13 13:54 | 37.23588 | -3.89795 | 15110 ft | 348 kts | 84° |
| 2026-04-13 13:54 | 37.23991 | -3.86899 | 15805 ft | 330 kts | 58° |
| 2026-04-13 13:55 | 37.25268 | -3.84655 | 16519 ft | 316 kts | 38° |
| 2026-04-13 13:55 | 37.26892 | -3.82797 | 17233 ft | 318 kts | 37° |
| 2026-04-13 13:55 | 37.28477 | -3.80831 | 17963 ft | 322 kts | 40° |
| 2026-04-13 13:55 | 37.29973 | -3.78714 | 18620 ft | 326 kts | 43° |
| 2026-04-13 13:56 | 37.31411 | -3.76483 | 19172 ft | 331 kts | 45° |
| 2026-04-13 13:56 | 37.32824 | -3.74165 | 19712 ft | 336 kts | 46° |
| 2026-04-13 13:56 | 37.34231 | -3.71781 | 20215 ft | 341 kts | 46° |
| 2026-04-13 13:56 | 37.35651 | -3.69378 | 20764 ft | 343 kts | 44° |
| 2026-04-13 13:57 | 37.37249 | -3.67174 | 21337 ft | 340 kts | 36° |
| 2026-04-13 13:57 | 37.39108 | -3.65375 | 21856 ft | 335 kts | 25° |
| 2026-04-13 13:57 | 37.41144 | -3.64086 | 22337 ft | 332 kts | 16° |
| 2026-04-13 13:57 | 37.43367 | -3.63293 | 22802 ft | 332 kts | 6° |
| 2026-04-13 13:58 | 37.45671 | -3.62979 | 23338 ft | 333 kts | 1° |
| 2026-04-13 13:58 | 37.47990 | -3.62867 | 23818 ft | 334 kts | 358° |
| 2026-04-13 13:58 | 37.50321 | -3.62851 | 24245 ft | 336 kts | 357° |
| 2026-04-13 13:58 | 37.52669 | -3.62873 | 24674 ft | 338 kts | 357° |
| 2026-04-13 13:59 | 37.55026 | -3.62899 | 25100 ft | 340 kts | 357° |
| 2026-04-13 13:59 | 37.57403 | -3.62915 | 25539 ft | 342 kts | 357° |
| 2026-04-13 13:59 | 37.59785 | -3.62919 | 25978 ft | 343 kts | 358° |
| 2026-04-13 13:59 | 37.62180 | -3.62913 | 26393 ft | 345 kts | 358° |
| 2026-04-13 14:00 | 37.64591 | -3.62899 | 26768 ft | 347 kts | 358° |
| 2026-04-13 14:00 | 37.67014 | -3.62880 | 27155 ft | 349 kts | 358° |
| 2026-04-13 14:00 | 37.69452 | -3.62860 | 27518 ft | 351 kts | 358° |
| 2026-04-13 14:00 | 37.71901 | -3.62838 | 27888 ft | 353 kts | 358° |
| 2026-04-13 14:01 | 37.74361 | -3.62816 | 28242 ft | 354 kts | 358° |
| 2026-04-13 14:01 | 37.76835 | -3.62795 | 28574 ft | 356 kts | 358° |
| 2026-04-13 14:01 | 37.79320 | -3.62774 | 28910 ft | 358 kts | 358° |
| 2026-04-13 14:01 | 37.81820 | -3.62753 | 29241 ft | 360 kts | 358° |
| 2026-04-13 14:02 | 37.84329 | -3.62732 | 29570 ft | 362 kts | 358° |
| 2026-04-13 14:02 | 37.86832 | -3.62711 | 29881 ft | 364 kts | 358° |
| 2026-04-13 14:02 | 37.89367 | -3.62690 | 30185 ft | 365 kts | 358° |
| 2026-04-13 14:02 | 37.91919 | -3.62668 | 30448 ft | 367 kts | 358° |
| 2026-04-13 14:03 | 37.94474 | -3.62647 | 30765 ft | 367 kts | 358° |
| 2026-04-13 14:03 | 37.97020 | -3.62624 | 31114 ft | 365 kts | 358° |
| 2026-04-13 14:03 | 37.99555 | -3.62602 | 31451 ft | 364 kts | 358° |
| 2026-04-13 14:03 | 38.02088 | -3.62580 | 31773 ft | 364 kts | 358° |
| 2026-04-13 14:04 | 38.04618 | -3.62559 | 32028 ft | 365 kts | 358° |
| 2026-04-13 14:04 | 38.09673 | -3.62518 | 32074 ft | 364 kts | 358° |
| 2026-04-13 14:05 | 38.14739 | -3.62462 | 32074 ft | 364 kts | 359° |
| 2026-04-13 14:05 | 38.19801 | -3.62048 | 32072 ft | 365 kts | 1° |
| 2026-04-13 14:06 | 38.24881 | -3.61551 | 32069 ft | 366 kts | 1° |
| 2026-04-13 14:06 | 38.29964 | -3.61056 | 32070 ft | 366 kts | 1° |
| 2026-04-13 14:07 | 38.35045 | -3.60563 | 32072 ft | 366 kts | 1° |
| 2026-04-13 14:07 | 38.40132 | -3.60069 | 32066 ft | 367 kts | 1° |
| 2026-04-13 14:08 | 38.45232 | -3.59574 | 32067 ft | 367 kts | 1° |
| 2026-04-13 14:08 | 38.50306 | -3.59082 | 32069 ft | 367 kts | 1° |
| 2026-04-13 14:09 | 38.55414 | -3.58585 | 32071 ft | 368 kts | 1° |
| 2026-04-13 14:09 | 38.60525 | -3.58087 | 32064 ft | 368 kts | 1° |
| 2026-04-13 14:10 | 38.65642 | -3.57588 | 32066 ft | 368 kts | 1° |
| 2026-04-13 14:10 | 38.70720 | -3.57092 | 32069 ft | 369 kts | 1° |
| 2026-04-13 14:11 | 38.75847 | -3.56590 | 32072 ft | 371 kts | 1° |
| 2026-04-13 14:11 | 38.81100 | -3.56078 | 32071 ft | 386 kts | 1° |
| 2026-04-13 14:12 | 38.86559 | -3.55544 | 32069 ft | 400 kts | 1° |
| 2026-04-13 14:12 | 38.92203 | -3.54989 | 32067 ft | 412 kts | 2° |
| 2026-04-13 14:12 | 38.95043 | -3.54708 | 31734 ft | 406 kts | 2° |
| 2026-04-13 14:13 | 38.97839 | -3.54649 | 31293 ft | 398 kts | 354° |
| 2026-04-13 14:13 | 39.00511 | -3.55266 | 30672 ft | 395 kts | 343° |
| 2026-04-13 14:13 | 39.03048 | -3.56682 | 29895 ft | 399 kts | 332° |